Stevens Creek, Virginia
Current Conditions -  °F | °C
As of 12:35 AM on Friday 31 Oct 2014 (Local Time) from KHLX Reporting Station
Scattered Clouds Scattered Clouds  
Wind Chill: 35°   Ceiling: Unl
Heat Index: 40°   Visibility: 10mi
Dew Point: 33°   Wind: 6mph
Humidity: 78%   Direction: 40°NE
Pressure: 30.01"   Gusts: NA
Location:  36.7333°N, 81.0291°W
Report Text: KHLX 310435Z AUTO 04005KT 10SM SCT042 04/01 A3001 RMK AO2 T00420007
Loading
Personal Weather Stations






























Interactive Weather Map
Tropical Storm Tracking
New forecast layout! Learn more

10-Day Weather Forecast

Advertisements
Track Severe Weather on mobile